BAW465 LEBB-EGLL
Flight info
| Callsign | BAW465 |
|---|---|
| Flight time | 1h 21m |
| Altitude | 38000 |
| Route | MAPAX DCT ECRIM DCT TEPRA UN873 MOKOR UP87 ROXOG |
| Aircraft | A320/M-SDE3FGHIRWY/LB1 |
Departure
| Time | 2026-05-05 05:40 |
|---|---|
| Airport | Bilbao Airport (LEBB) |
Arrival
| Time | 2026-05-05 07:01 |
|---|---|
| Airport | London Heathrow Airport (EGLL) |
| Time | Latitude | Longitude | Altitude | Speed | Heading |
|---|---|---|---|---|---|
| 2026-05-05 05:25 | 43.30438 | -2.90688 | 145 ft | 0 kts | 27° |
| 2026-05-05 05:31 | 43.30425 | -2.90697 | 145 ft | 2 kts | 27° |
| 2026-05-05 05:31 | 43.30411 | -2.90707 | 145 ft | 2 kts | 27° |
| 2026-05-05 05:32 | 43.30396 | -2.90717 | 145 ft | 2 kts | 26° |
| 2026-05-05 05:32 | 43.30386 | -2.90736 | 145 ft | 2 kts | 86° |
| 2026-05-05 05:32 | 43.30387 | -2.90750 | 145 ft | 1 kts | 118° |
| 2026-05-05 05:32 | 43.30391 | -2.90758 | 145 ft | 0 kts | 117° |
| 2026-05-05 05:35 | 43.30382 | -2.90734 | 145 ft | 8 kts | 118° |
| 2026-05-05 05:35 | 43.30339 | -2.90629 | 145 ft | 14 kts | 119° |
| 2026-05-05 05:35 | 43.30262 | -2.90546 | 145 ft | 14 kts | 150° |
| 2026-05-05 05:35 | 43.30171 | -2.90563 | 145 ft | 13 kts | 207° |
| 2026-05-05 05:36 | 43.30103 | -2.90531 | 145 ft | 12 kts | 121° |
| 2026-05-05 05:36 | 43.30052 | -2.90400 | 145 ft | 17 kts | 117° |
| 2026-05-05 05:36 | 43.29997 | -2.90255 | 145 ft | 17 kts | 117° |
| 2026-05-05 05:36 | 43.29942 | -2.90109 | 145 ft | 17 kts | 115° |
| 2026-05-05 05:37 | 43.29892 | -2.89962 | 145 ft | 17 kts | 115° |
| 2026-05-05 05:37 | 43.29837 | -2.89812 | 145 ft | 17 kts | 118° |
| 2026-05-05 05:37 | 43.29780 | -2.89664 | 145 ft | 17 kts | 118° |
| 2026-05-05 05:37 | 43.29741 | -2.89582 | 145 ft | 3 kts | 153° |
| 2026-05-05 05:38 | 43.29713 | -2.89581 | 145 ft | 4 kts | 198° |
| 2026-05-05 05:38 | 43.29686 | -2.89615 | 145 ft | 5 kts | 230° |
| 2026-05-05 05:38 | 43.29660 | -2.89666 | 145 ft | 7 kts | 241° |
| 2026-05-05 05:38 | 43.29639 | -2.89732 | 145 ft | 7 kts | 252° |
| 2026-05-05 05:39 | 43.29651 | -2.89809 | 145 ft | 9 kts | 296° |
| 2026-05-05 05:39 | 43.29759 | -2.90103 | 145 ft | 68 kts | 297° |
| 2026-05-05 05:39 | 43.30066 | -2.90941 | 145 ft | 128 kts | 296° |
| 2026-05-05 05:39 | 43.30550 | -2.92238 | 215 ft | 169 kts | 297° |
| 2026-05-05 05:40 | 43.31117 | -2.93749 | 658 ft | 178 kts | 296° |
| 2026-05-05 05:40 | 43.31699 | -2.95368 | 1338 ft | 180 kts | 297° |
| 2026-05-05 05:40 | 43.32304 | -2.96990 | 2021 ft | 182 kts | 302° |
| 2026-05-05 05:40 | 43.33147 | -2.98450 | 2449 ft | 197 kts | 318° |
| 2026-05-05 05:41 | 43.34253 | -2.99679 | 2849 ft | 214 kts | 322° |
| 2026-05-05 05:41 | 43.35426 | -3.01060 | 3223 ft | 233 kts | 317° |
| 2026-05-05 05:41 | 43.36672 | -3.02643 | 3600 ft | 255 kts | 316° |
| 2026-05-05 05:41 | 43.38000 | -3.04395 | 4117 ft | 272 kts | 317° |
| 2026-05-05 05:42 | 43.39386 | -3.06205 | 4851 ft | 280 kts | 319° |
| 2026-05-05 05:42 | 43.41110 | -3.07495 | 5642 ft | 285 kts | 349° |
| 2026-05-05 05:42 | 43.43100 | -3.07560 | 6465 ft | 287 kts | 6° |
| 2026-05-05 05:42 | 43.45133 | -3.07165 | 7223 ft | 293 kts | 8° |
| 2026-05-05 05:43 | 43.47208 | -3.06749 | 7984 ft | 298 kts | 5° |
| 2026-05-05 05:43 | 43.49285 | -3.06410 | 8782 ft | 299 kts | 3° |
| 2026-05-05 05:43 | 43.51396 | -3.06139 | 9502 ft | 303 kts | 1° |
| 2026-05-05 05:43 | 43.53508 | -3.05902 | 10231 ft | 305 kts | 0° |
| 2026-05-05 05:44 | 43.55654 | -3.05681 | 10820 ft | 312 kts | 359° |
| 2026-05-05 05:44 | 43.57789 | -3.05471 | 11458 ft | 315 kts | 359° |
| 2026-05-05 05:44 | 43.59975 | -3.05254 | 12208 ft | 314 kts | 358° |
| 2026-05-05 05:44 | 43.62123 | -3.05044 | 12863 ft | 315 kts | 358° |
| 2026-05-05 05:45 | 43.64335 | -3.04829 | 13459 ft | 318 kts | 358° |
| 2026-05-05 05:45 | 43.66525 | -3.04614 | 14036 ft | 321 kts | 358° |
| 2026-05-05 05:45 | 43.68759 | -3.04315 | 14608 ft | 326 kts | 2° |
| 2026-05-05 05:45 | 43.70983 | -3.03829 | 15164 ft | 330 kts | 4° |
| 2026-05-05 05:46 | 43.73278 | -3.03276 | 15722 ft | 333 kts | 4° |
| 2026-05-05 05:46 | 43.75562 | -3.02717 | 16260 ft | 336 kts | 4° |
| 2026-05-05 05:46 | 43.77861 | -3.02181 | 16865 ft | 336 kts | 9° |
| 2026-05-05 05:46 | 43.80127 | -3.01647 | 17530 ft | 333 kts | 10° |
| 2026-05-05 05:47 | 43.82426 | -3.01079 | 18034 ft | 336 kts | 10° |
| 2026-05-05 05:47 | 43.84703 | -3.00514 | 18507 ft | 339 kts | 10° |
| 2026-05-05 05:47 | 43.87022 | -2.99942 | 18992 ft | 342 kts | 10° |
| 2026-05-05 05:47 | 43.89379 | -2.99364 | 19474 ft | 344 kts | 10° |
| 2026-05-05 05:48 | 43.91743 | -2.98786 | 19944 ft | 347 kts | 10° |
| 2026-05-05 05:48 | 43.94147 | -2.98200 | 20408 ft | 349 kts | 10° |
| 2026-05-05 05:48 | 43.96519 | -2.97622 | 20853 ft | 352 kts | 10° |
| 2026-05-05 05:48 | 43.98940 | -2.97031 | 21293 ft | 354 kts | 10° |
| 2026-05-05 05:49 | 44.01387 | -2.96435 | 21727 ft | 357 kts | 10° |
| 2026-05-05 05:49 | 44.03836 | -2.95837 | 22148 ft | 359 kts | 10° |
| 2026-05-05 05:49 | 44.06290 | -2.95238 | 22558 ft | 361 kts | 10° |
| 2026-05-05 05:49 | 44.08747 | -2.94638 | 22958 ft | 364 kts | 10° |
| 2026-05-05 05:50 | 44.11235 | -2.94029 | 23352 ft | 366 kts | 10° |
| 2026-05-05 05:50 | 44.13751 | -2.93413 | 23740 ft | 368 kts | 10° |
| 2026-05-05 05:50 | 44.16270 | -2.92796 | 24117 ft | 370 kts | 10° |
| 2026-05-05 05:50 | 44.18832 | -2.92168 | 24491 ft | 372 kts | 10° |
| 2026-05-05 05:51 | 44.21371 | -2.91546 | 24852 ft | 374 kts | 10° |
| 2026-05-05 05:51 | 44.23943 | -2.90914 | 25207 ft | 377 kts | 10° |
| 2026-05-05 05:51 | 44.26512 | -2.90282 | 25555 ft | 379 kts | 10° |
| 2026-05-05 05:51 | 44.29113 | -2.89642 | 25899 ft | 381 kts | 10° |
| 2026-05-05 05:52 | 44.31725 | -2.88999 | 26238 ft | 383 kts | 10° |
| 2026-05-05 05:52 | 44.34341 | -2.88355 | 26569 ft | 385 kts | 10° |
| 2026-05-05 05:52 | 44.36986 | -2.87702 | 26897 ft | 387 kts | 10° |
| 2026-05-05 05:52 | 44.39658 | -2.87042 | 27221 ft | 389 kts | 10° |
| 2026-05-05 05:53 | 44.42302 | -2.86389 | 27534 ft | 391 kts | 10° |
| 2026-05-05 05:53 | 44.44984 | -2.85725 | 27847 ft | 393 kts | 10° |
| 2026-05-05 05:53 | 44.47693 | -2.85055 | 28152 ft | 395 kts | 10° |
| 2026-05-05 05:53 | 44.50365 | -2.84393 | 28447 ft | 396 kts | 10° |
| 2026-05-05 05:54 | 44.53083 | -2.83718 | 28741 ft | 398 kts | 10° |
| 2026-05-05 05:54 | 44.55808 | -2.83042 | 29029 ft | 400 kts | 10° |
| 2026-05-05 05:54 | 44.58548 | -2.82361 | 29311 ft | 402 kts | 10° |
| 2026-05-05 05:54 | 44.61299 | -2.81676 | 29586 ft | 404 kts | 10° |
| 2026-05-05 05:55 | 44.64066 | -2.80987 | 29856 ft | 406 kts | 10° |
| 2026-05-05 05:55 | 44.66851 | -2.80293 | 30121 ft | 407 kts | 10° |
| 2026-05-05 05:55 | 44.69601 | -2.79607 | 30376 ft | 409 kts | 10° |
| 2026-05-05 05:55 | 44.72398 | -2.78908 | 30628 ft | 411 kts | 10° |
| 2026-05-05 05:56 | 44.75229 | -2.78201 | 30877 ft | 412 kts | 10° |
| 2026-05-05 05:56 | 44.78035 | -2.77498 | 31118 ft | 414 kts | 10° |
| 2026-05-05 05:56 | 44.80872 | -2.76788 | 31356 ft | 415 kts | 10° |
| 2026-05-05 05:56 | 44.83697 | -2.76079 | 31588 ft | 417 kts | 10° |
| 2026-05-05 05:57 | 44.86556 | -2.75362 | 31814 ft | 419 kts | 10° |
| 2026-05-05 05:57 | 44.89429 | -2.74640 | 32037 ft | 420 kts | 10° |
| 2026-05-05 05:57 | 44.92280 | -2.73922 | 32254 ft | 422 kts | 10° |
| 2026-05-05 05:57 | 44.95184 | -2.73191 | 32470 ft | 423 kts | 10° |
| 2026-05-05 05:58 | 44.98051 | -2.72469 | 32678 ft | 424 kts | 10° |
| 2026-05-05 05:58 | 45.00972 | -2.71732 | 32886 ft | 426 kts | 10° |
| 2026-05-05 05:58 | 45.03861 | -2.71002 | 33087 ft | 427 kts | 10° |
| 2026-05-05 05:58 | 45.06809 | -2.70257 | 33286 ft | 429 kts | 10° |
| 2026-05-05 05:59 | 45.09712 | -2.69522 | 33477 ft | 430 kts | 10° |
| 2026-05-05 05:59 | 45.12675 | -2.68771 | 33667 ft | 431 kts | 10° |
| 2026-05-05 05:59 | 45.15607 | -2.68027 | 33850 ft | 433 kts | 10° |
| 2026-05-05 05:59 | 45.18559 | -2.67278 | 34029 ft | 434 kts | 10° |
| 2026-05-05 06:00 | 45.21531 | -2.66522 | 34209 ft | 435 kts | 10° |
| 2026-05-05 06:00 | 45.24484 | -2.65771 | 34378 ft | 436 kts | 10° |
| 2026-05-05 06:00 | 45.27458 | -2.65013 | 34565 ft | 437 kts | 10° |
| 2026-05-05 06:00 | 45.30438 | -2.64253 | 34797 ft | 436 kts | 10° |
| 2026-05-05 06:01 | 45.33403 | -2.63496 | 35030 ft | 435 kts | 10° |
| 2026-05-05 06:01 | 45.36394 | -2.62731 | 35253 ft | 435 kts | 10° |
| 2026-05-05 06:01 | 45.39342 | -2.61976 | 35463 ft | 435 kts | 10° |
| 2026-05-05 06:01 | 45.42331 | -2.61210 | 35667 ft | 434 kts | 10° |
| 2026-05-05 06:02 | 45.45288 | -2.60451 | 35864 ft | 434 kts | 10° |
| 2026-05-05 06:02 | 45.48225 | -2.59696 | 36054 ft | 433 kts | 10° |
| 2026-05-05 06:02 | 45.51167 | -2.58939 | 36228 ft | 433 kts | 10° |
| 2026-05-05 06:02 | 45.54149 | -2.58172 | 36372 ft | 434 kts | 10° |
| 2026-05-05 06:03 | 45.57104 | -2.57484 | 36495 ft | 435 kts | 7° |
| 2026-05-05 06:03 | 45.60093 | -2.56961 | 36618 ft | 436 kts | 6° |
| 2026-05-05 06:03 | 45.63098 | -2.56483 | 36741 ft | 436 kts | 6° |
| 2026-05-05 06:03 | 45.66130 | -2.56008 | 36860 ft | 437 kts | 6° |
| 2026-05-05 06:04 | 45.69144 | -2.55535 | 36973 ft | 438 kts | 6° |
| 2026-05-05 06:04 | 45.72127 | -2.55062 | 37082 ft | 439 kts | 6° |
| 2026-05-05 06:04 | 45.75157 | -2.54580 | 37189 ft | 439 kts | 6° |
| 2026-05-05 06:04 | 45.78184 | -2.54095 | 37292 ft | 440 kts | 6° |
| 2026-05-05 06:05 | 45.81246 | -2.53604 | 37393 ft | 440 kts | 6° |
| 2026-05-05 06:05 | 45.84242 | -2.53123 | 37488 ft | 441 kts | 6° |
| 2026-05-05 06:05 | 45.90353 | -2.52138 | 37672 ft | 442 kts | 6° |
| 2026-05-05 06:06 | 45.96433 | -2.51156 | 37844 ft | 443 kts | 6° |
| 2026-05-05 06:06 | 46.02533 | -2.50169 | 37982 ft | 445 kts | 6° |
| 2026-05-05 06:07 | 46.08663 | -2.49174 | 37988 ft | 445 kts | 6° |
| 2026-05-05 06:07 | 46.14801 | -2.48176 | 37990 ft | 445 kts | 6° |
| 2026-05-05 06:08 | 46.20936 | -2.47175 | 37990 ft | 445 kts | 6° |
| 2026-05-05 06:08 | 46.27041 | -2.46177 | 37990 ft | 445 kts | 6° |
| 2026-05-05 06:09 | 46.33200 | -2.45166 | 37990 ft | 445 kts | 6° |
| 2026-05-05 06:09 | 46.39326 | -2.44159 | 37990 ft | 445 kts | 6° |
| 2026-05-05 06:10 | 46.45401 | -2.42710 | 37990 ft | 445 kts | 13° |
| 2026-05-05 06:10 | 46.51297 | -2.40136 | 37990 ft | 445 kts | 20° |
| 2026-05-05 06:11 | 46.56905 | -2.36453 | 37990 ft | 445 kts | 28° |
| 2026-05-05 06:11 | 46.62276 | -2.32050 | 37990 ft | 445 kts | 30° |
| 2026-05-05 06:12 | 46.67649 | -2.27557 | 37990 ft | 445 kts | 30° |
| 2026-05-05 06:12 | 46.72999 | -2.23097 | 37990 ft | 445 kts | 30° |
| 2026-05-05 06:13 | 46.78346 | -2.18641 | 37990 ft | 445 kts | 30° |
| 2026-05-05 06:13 | 46.83704 | -2.14165 | 37990 ft | 445 kts | 30° |
| 2026-05-05 06:14 | 46.89072 | -2.09705 | 37990 ft | 445 kts | 28° |
| 2026-05-05 06:14 | 46.94614 | -2.05692 | 37989 ft | 445 kts | 24° |
| 2026-05-05 06:15 | 47.00378 | -2.02380 | 37990 ft | 445 kts | 18° |
| 2026-05-05 06:15 | 47.06326 | -2.00051 | 37990 ft | 445 kts | 11° |
| 2026-05-05 06:16 | 47.12410 | -1.98472 | 37990 ft | 445 kts | 9° |
| 2026-05-05 06:16 | 47.18494 | -1.96993 | 37990 ft | 445 kts | 9° |
| 2026-05-05 06:17 | 47.24565 | -1.95492 | 37990 ft | 445 kts | 9° |
| 2026-05-05 06:17 | 47.30674 | -1.94042 | 37990 ft | 445 kts | 7° |
| 2026-05-05 06:18 | 47.36813 | -1.93397 | 37990 ft | 445 kts | 0° |
| 2026-05-05 06:18 | 47.42990 | -1.93738 | 37991 ft | 445 kts | 356° |
| 2026-05-05 06:19 | 47.49160 | -1.94414 | 37990 ft | 445 kts | 355° |
| 2026-05-05 06:19 | 47.55306 | -1.95072 | 37989 ft | 445 kts | 357° |
| 2026-05-05 06:20 | 47.61486 | -1.95022 | 37990 ft | 445 kts | 4° |
| 2026-05-05 06:20 | 47.67566 | -1.93782 | 37990 ft | 445 kts | 12° |
| 2026-05-05 06:21 | 47.73536 | -1.91351 | 37990 ft | 445 kts | 18° |
| 2026-05-05 06:21 | 47.79355 | -1.88372 | 37990 ft | 445 kts | 19° |
| 2026-05-05 06:22 | 47.85215 | -1.85348 | 37990 ft | 445 kts | 19° |
| 2026-05-05 06:22 | 47.91045 | -1.82354 | 37990 ft | 445 kts | 19° |
| 2026-05-05 06:23 | 47.96888 | -1.79355 | 37990 ft | 445 kts | 19° |
| 2026-05-05 06:23 | 48.02764 | -1.76671 | 37990 ft | 445 kts | 13° |
| 2026-05-05 06:24 | 48.08822 | -1.74955 | 37990 ft | 445 kts | 7° |
| 2026-05-05 06:24 | 48.14992 | -1.74285 | 37990 ft | 445 kts | 0° |
| 2026-05-05 06:25 | 48.21151 | -1.74324 | 37990 ft | 445 kts | 359° |
| 2026-05-05 06:25 | 48.27339 | -1.74426 | 37990 ft | 445 kts | 359° |
| 2026-05-05 06:26 | 48.33497 | -1.74513 | 37990 ft | 445 kts | 359° |
| 2026-05-05 06:26 | 48.39674 | -1.74593 | 37990 ft | 445 kts | 359° |
| 2026-05-05 06:27 | 48.48905 | -1.74707 | 37990 ft | 445 kts | 359° |
| 2026-05-05 06:28 | 48.55085 | -1.74783 | 37990 ft | 445 kts | 359° |
| 2026-05-05 06:28 | 48.61271 | -1.74860 | 37990 ft | 445 kts | 359° |
| 2026-05-05 06:29 | 48.67426 | -1.74935 | 37990 ft | 445 kts | 359° |
| 2026-05-05 06:29 | 48.73606 | -1.75011 | 37990 ft | 445 kts | 359° |
| 2026-05-05 06:30 | 48.79778 | -1.75086 | 37990 ft | 445 kts | 359° |
| 2026-05-05 06:30 | 48.85944 | -1.75160 | 37990 ft | 445 kts | 359° |
| 2026-05-05 06:31 | 48.92147 | -1.75220 | 37990 ft | 445 kts | 0° |
| 2026-05-05 06:31 | 48.98290 | -1.75007 | 37990 ft | 445 kts | 1° |
| 2026-05-05 06:32 | 49.04469 | -1.74743 | 37990 ft | 445 kts | 1° |
| 2026-05-05 06:32 | 49.10633 | -1.74496 | 37990 ft | 445 kts | 1° |
| 2026-05-05 06:33 | 49.16814 | -1.74256 | 37990 ft | 445 kts | 1° |
| 2026-05-05 06:33 | 49.22995 | -1.74018 | 37990 ft | 445 kts | 1° |
| 2026-05-05 06:34 | 49.29129 | -1.73781 | 37990 ft | 445 kts | 1° |
| 2026-05-05 06:34 | 49.35341 | -1.73541 | 37990 ft | 445 kts | 1° |
| 2026-05-05 06:35 | 49.41492 | -1.73302 | 37990 ft | 445 kts | 1° |
| 2026-05-05 06:35 | 49.47678 | -1.73060 | 37990 ft | 445 kts | 1° |
| 2026-05-05 06:35 | 49.50783 | -1.72938 | 37796 ft | 445 kts | 1° |
| 2026-05-05 06:36 | 49.53829 | -1.72818 | 37549 ft | 443 kts | 1° |
| 2026-05-05 06:36 | 49.56907 | -1.72697 | 37298 ft | 440 kts | 1° |
| 2026-05-05 06:36 | 49.59938 | -1.72577 | 37048 ft | 437 kts | 1° |
| 2026-05-05 06:36 | 49.62988 | -1.72371 | 36796 ft | 435 kts | 3° |
| 2026-05-05 06:37 | 49.66015 | -1.72110 | 36546 ft | 434 kts | 3° |
| 2026-05-05 06:37 | 49.69010 | -1.71842 | 36298 ft | 434 kts | 3° |
| 2026-05-05 06:37 | 49.72064 | -1.71572 | 36045 ft | 434 kts | 3° |
| 2026-05-05 06:37 | 49.75087 | -1.71310 | 35781 ft | 434 kts | 3° |
| 2026-05-05 06:38 | 49.78149 | -1.71047 | 35398 ft | 435 kts | 3° |
| 2026-05-05 06:38 | 49.81235 | -1.70783 | 34901 ft | 436 kts | 3° |
| 2026-05-05 06:38 | 49.84308 | -1.70521 | 34315 ft | 437 kts | 3° |
| 2026-05-05 06:38 | 49.87351 | -1.70262 | 33761 ft | 434 kts | 3° |
| 2026-05-05 06:39 | 49.90415 | -1.70000 | 33283 ft | 430 kts | 3° |
| 2026-05-05 06:39 | 49.93431 | -1.69744 | 32836 ft | 426 kts | 3° |
| 2026-05-05 06:39 | 49.96437 | -1.69413 | 32355 ft | 422 kts | 5° |
| 2026-05-05 06:39 | 49.99404 | -1.68808 | 31859 ft | 419 kts | 9° |
| 2026-05-05 06:40 | 50.02320 | -1.67908 | 31355 ft | 416 kts | 13° |
| 2026-05-05 06:40 | 50.05168 | -1.66725 | 30860 ft | 413 kts | 16° |
| 2026-05-05 06:40 | 50.07965 | -1.65389 | 30398 ft | 409 kts | 17° |
| 2026-05-05 06:40 | 50.10719 | -1.64036 | 29940 ft | 405 kts | 17° |
| 2026-05-05 06:41 | 50.13438 | -1.62699 | 29486 ft | 402 kts | 17° |
| 2026-05-05 06:41 | 50.16084 | -1.61404 | 29043 ft | 398 kts | 17° |
| 2026-05-05 06:41 | 50.18706 | -1.60123 | 28603 ft | 395 kts | 17° |
| 2026-05-05 06:41 | 50.21313 | -1.58851 | 28165 ft | 392 kts | 17° |
| 2026-05-05 06:42 | 50.23905 | -1.57587 | 27724 ft | 389 kts | 17° |
| 2026-05-05 06:42 | 50.26447 | -1.56347 | 27291 ft | 386 kts | 17° |
| 2026-05-05 06:42 | 50.28997 | -1.55104 | 26854 ft | 383 kts | 17° |
| 2026-05-05 06:42 | 50.31603 | -1.53832 | 26403 ft | 380 kts | 17° |
| 2026-05-05 06:43 | 50.34159 | -1.52582 | 25963 ft | 376 kts | 17° |
| 2026-05-05 06:43 | 50.36734 | -1.51320 | 25516 ft | 373 kts | 17° |
| 2026-05-05 06:43 | 50.39273 | -1.50074 | 25073 ft | 370 kts | 17° |
| 2026-05-05 06:43 | 50.41754 | -1.48854 | 24638 ft | 367 kts | 17° |
| 2026-05-05 06:44 | 50.44259 | -1.47621 | 24199 ft | 365 kts | 17° |
| 2026-05-05 06:44 | 50.46744 | -1.46396 | 23760 ft | 362 kts | 17° |
| 2026-05-05 06:44 | 50.49166 | -1.45202 | 23330 ft | 359 kts | 17° |
| 2026-05-05 06:44 | 50.51516 | -1.44030 | 22911 ft | 357 kts | 18° |
| 2026-05-05 06:45 | 50.53887 | -1.42609 | 22480 ft | 355 kts | 23° |
| 2026-05-05 06:45 | 50.56154 | -1.40908 | 22052 ft | 352 kts | 27° |
| 2026-05-05 06:45 | 50.58322 | -1.39075 | 21630 ft | 350 kts | 28° |
| 2026-05-05 06:45 | 50.60461 | -1.37227 | 21211 ft | 349 kts | 28° |
| 2026-05-05 06:46 | 50.62567 | -1.35404 | 20796 ft | 347 kts | 28° |
| 2026-05-05 06:46 | 50.64676 | -1.33581 | 20384 ft | 346 kts | 29° |
| 2026-05-05 06:46 | 50.66771 | -1.31773 | 19972 ft | 344 kts | 29° |
| 2026-05-05 06:46 | 50.68884 | -1.29954 | 19553 ft | 343 kts | 27° |
| 2026-05-05 06:47 | 50.71024 | -1.28377 | 18895 ft | 338 kts | 23° |
| 2026-05-05 06:47 | 50.73195 | -1.26939 | 17722 ft | 345 kts | 22° |
| 2026-05-05 06:47 | 50.75424 | -1.25481 | 16594 ft | 348 kts | 22° |
| 2026-05-05 06:47 | 50.77635 | -1.24019 | 15683 ft | 343 kts | 23° |
| 2026-05-05 06:48 | 50.79792 | -1.22575 | 14822 ft | 338 kts | 23° |
| 2026-05-05 06:48 | 50.81915 | -1.21142 | 14303 ft | 323 kts | 23° |
| 2026-05-05 06:48 | 50.83940 | -1.19769 | 13896 ft | 313 kts | 23° |
| 2026-05-05 06:48 | 50.85916 | -1.18423 | 13505 ft | 305 kts | 23° |
| 2026-05-05 06:49 | 50.87865 | -1.17092 | 13110 ft | 306 kts | 23° |
| 2026-05-05 06:49 | 50.89872 | -1.15719 | 12719 ft | 306 kts | 23° |
| 2026-05-05 06:49 | 50.92023 | -1.14246 | 12299 ft | 307 kts | 23° |
| 2026-05-05 06:49 | 50.94178 | -1.12768 | 11878 ft | 307 kts | 23° |
| 2026-05-05 06:50 | 50.96321 | -1.11296 | 11460 ft | 307 kts | 23° |
| 2026-05-05 06:50 | 50.98477 | -1.09814 | 11039 ft | 307 kts | 23° |
| 2026-05-05 06:50 | 51.00593 | -1.08358 | 10626 ft | 306 kts | 23° |
| 2026-05-05 06:50 | 51.02652 | -1.06940 | 10224 ft | 306 kts | 23° |
| 2026-05-05 06:51 | 51.04653 | -1.05560 | 9938 ft | 287 kts | 23° |
| 2026-05-05 06:51 | 51.06573 | -1.04234 | 9685 ft | 287 kts | 23° |
| 2026-05-05 06:51 | 51.08409 | -1.02965 | 9327 ft | 287 kts | 23° |
| 2026-05-05 06:51 | 51.10226 | -1.01709 | 8976 ft | 286 kts | 23° |
| 2026-05-05 06:52 | 51.12038 | -1.00455 | 8626 ft | 286 kts | 23° |
| 2026-05-05 06:52 | 51.13859 | -0.99193 | 8275 ft | 285 kts | 23° |
| 2026-05-05 06:52 | 51.15657 | -0.97947 | 7928 ft | 284 kts | 23° |
| 2026-05-05 06:52 | 51.17473 | -0.96686 | 7578 ft | 283 kts | 23° |
| 2026-05-05 06:53 | 51.19275 | -0.95436 | 7229 ft | 282 kts | 23° |
| 2026-05-05 06:53 | 51.21085 | -0.94177 | 6878 ft | 281 kts | 23° |
| 2026-05-05 06:53 | 51.22917 | -0.92902 | 6523 ft | 281 kts | 23° |
| 2026-05-05 06:53 | 51.24705 | -0.91657 | 6175 ft | 280 kts | 23° |
| 2026-05-05 06:54 | 51.26526 | -0.90388 | 5822 ft | 279 kts | 23° |
| 2026-05-05 06:54 | 51.28357 | -0.89111 | 5465 ft | 278 kts | 23° |
| 2026-05-05 06:54 | 51.30127 | -0.87875 | 5120 ft | 277 kts | 23° |
| 2026-05-05 06:54 | 51.31892 | -0.86642 | 4776 ft | 277 kts | 23° |
| 2026-05-05 06:55 | 51.33670 | -0.85398 | 4429 ft | 276 kts | 23° |
| 2026-05-05 06:55 | 51.35414 | -0.84176 | 4123 ft | 274 kts | 23° |
| 2026-05-05 06:55 | 51.37177 | -0.82941 | 3867 ft | 270 kts | 23° |
| 2026-05-05 06:55 | 51.38881 | -0.81745 | 3643 ft | 265 kts | 23° |
| 2026-05-05 06:56 | 51.40581 | -0.80552 | 3553 ft | 254 kts | 23° |
| 2026-05-05 06:56 | 51.42159 | -0.79444 | 3500 ft | 242 kts | 23° |
| 2026-05-05 06:56 | 51.43631 | -0.78308 | 3421 ft | 233 kts | 35° |
| 2026-05-05 06:56 | 51.44742 | -0.76421 | 3204 ft | 229 kts | 56° |
| 2026-05-05 06:57 | 51.45535 | -0.74225 | 3013 ft | 225 kts | 63° |
| 2026-05-05 06:57 | 51.46172 | -0.71970 | 2865 ft | 217 kts | 68° |
| 2026-05-05 06:57 | 51.46679 | -0.69765 | 2712 ft | 207 kts | 72° |
| 2026-05-05 06:57 | 51.47080 | -0.67570 | 2598 ft | 198 kts | 75° |
| 2026-05-05 06:58 | 51.47398 | -0.65465 | 2371 ft | 193 kts | 78° |
| 2026-05-05 06:58 | 51.47592 | -0.63355 | 2017 ft | 190 kts | 84° |
| 2026-05-05 06:58 | 51.47695 | -0.61315 | 1665 ft | 179 kts | 86° |
| 2026-05-05 06:58 | 51.47731 | -0.59395 | 1427 ft | 163 kts | 89° |
| 2026-05-05 06:59 | 51.47733 | -0.57617 | 1205 ft | 153 kts | 90° |
| 2026-05-05 06:59 | 51.47730 | -0.55995 | 1010 ft | 140 kts | 90° |
| 2026-05-05 06:59 | 51.47732 | -0.54465 | 824 ft | 135 kts | 89° |
| 2026-05-05 06:59 | 51.47736 | -0.52951 | 654 ft | 135 kts | 89° |
| 2026-05-05 07:00 | 51.47740 | -0.51448 | 476 ft | 134 kts | 89° |
| 2026-05-05 07:00 | 51.47742 | -0.49953 | 299 ft | 134 kts | 89° |
| 2026-05-05 07:00 | 51.47750 | -0.48459 | 138 ft | 133 kts | 89° |
| 2026-05-05 07:00 | 51.47755 | -0.47011 | 92 ft | 120 kts | 90° |
| 2026-05-05 07:01 | 51.47757 | -0.45938 | 92 ft | 72 kts | 89° |
| 2026-05-05 07:01 | 51.47728 | -0.45501 | 92 ft | 16 kts | 143° |
| 2026-05-05 07:01 | 51.47624 | -0.45469 | 92 ft | 10 kts | 197° |
| 2026-05-05 07:01 | 51.47595 | -0.45576 | 92 ft | 11 kts | 270° |
| 2026-05-05 07:02 | 51.47596 | -0.45709 | 92 ft | 12 kts | 269° |
| 2026-05-05 07:02 | 51.47594 | -0.45852 | 92 ft | 13 kts | 268° |
| 2026-05-05 07:02 | 51.47594 | -0.46019 | 92 ft | 17 kts | 269° |
| 2026-05-05 07:02 | 51.47593 | -0.46215 | 92 ft | 17 kts | 269° |
| 2026-05-05 07:03 | 51.47592 | -0.46414 | 92 ft | 17 kts | 269° |
| 2026-05-05 07:03 | 51.47592 | -0.46614 | 92 ft | 18 kts | 269° |
| 2026-05-05 07:03 | 51.47589 | -0.46820 | 92 ft | 18 kts | 262° |
| 2026-05-05 07:03 | 51.47581 | -0.47027 | 92 ft | 18 kts | 269° |
| 2026-05-05 07:04 | 51.47582 | -0.47234 | 92 ft | 18 kts | 270° |
| 2026-05-05 07:04 | 51.47582 | -0.47441 | 92 ft | 18 kts | 269° |
| 2026-05-05 07:04 | 51.47580 | -0.47648 | 92 ft | 18 kts | 269° |
| 2026-05-05 07:04 | 51.47579 | -0.47852 | 92 ft | 18 kts | 269° |
| 2026-05-05 07:05 | 51.47578 | -0.48060 | 92 ft | 18 kts | 269° |
| 2026-05-05 07:05 | 51.47578 | -0.48264 | 92 ft | 18 kts | 268° |
| 2026-05-05 07:05 | 51.47557 | -0.48454 | 92 ft | 17 kts | 207° |
| 2026-05-05 07:05 | 51.47442 | -0.48477 | 92 ft | 17 kts | 179° |
| 2026-05-05 07:06 | 51.47322 | -0.48477 | 92 ft | 17 kts | 180° |
| 2026-05-05 07:06 | 51.47272 | -0.48508 | 92 ft | 7 kts | 264° |
| 2026-05-05 07:06 | 51.47271 | -0.48580 | 92 ft | 1 kts | 270° |
| 2026-05-05 07:06 | 51.47271 | -0.48581 | 92 ft | 0 kts | 270° |